sensor_id;sensor_type;location;lat;lon;timestamp;pressure;altitude;pressure_sealevel;temperature;humidity
50696;BME280;36665;51.786;21.594;2023-05-22T00:01:03;95734.73;;;9.63;57.82
50696;BME280;36665;51.786;21.594;2023-05-22T00:09:28;95709.55;;;9.57;57.92
50696;BME280;36665;51.786;21.594;2023-05-22T00:17:51;95692.48;;;9.52;57.87
50696;BME280;36665;51.786;21.594;2023-05-22T00:26:15;95651.14;;;9.42;58.07
50696;BME280;36665;51.786;21.594;2023-05-22T00:34:38;95593.30;;;9.26;57.96
50696;BME280;36665;51.786;21.594;2023-05-22T00:43:01;95565.22;;;9.20;57.97
50696;BME280;36665;51.786;21.594;2023-05-22T00:51:30;95561.30;;;9.19;57.92
50696;BME280;36665;51.786;21.594;2023-05-22T00:59:53;95552.49;;;9.15;58.16
50696;BME280;36665;51.786;21.594;2023-05-22T01:08:16;95516.70;;;9.07;57.98
50696;BME280;36665;51.786;21.594;2023-05-22T01:17:00;95454.84;;;8.89;58.14
50696;BME280;36665;51.786;21.594;2023-05-22T01:25:40;95389.09;;;8.74;57.95
50696;BME280;36665;51.786;21.594;2023-05-22T01:34:10;95345.92;;;8.61;57.87
50696;BME280;36665;51.786;21.594;2023-05-22T01:42:34;95282.23;;;8.44;57.92
50696;BME280;36665;51.786;21.594;2023-05-22T01:51:02;95193.00;;;8.21;58.03
50696;BME280;36665;51.786;21.594;2023-05-22T01:59:39;95091.90;;;7.94;57.90
50696;BME280;36665;51.786;21.594;2023-05-22T02:08:05;95062.77;;;7.87;57.80
50696;BME280;36665;51.786;21.594;2023-05-22T02:16:29;95049.15;;;7.83;57.89
50696;BME280;36665;51.786;21.594;2023-05-22T02:24:52;95017.17;;;7.75;57.97
50696;BME280;36665;51.786;21.594;2023-05-22T02:33:15;95029.89;;;7.78;58.03
50696;BME280;36665;51.786;21.594;2023-05-22T02:41:40;95039.58;;;7.82;58.06
50696;BME280;36665;51.786;21.594;2023-05-22T02:50:03;95027.98;;;7.78;58.10
50696;BME280;36665;51.786;21.594;2023-05-22T02:58:28;95024.76;;;7.77;58.08
50696;BME280;36665;51.786;21.594;2023-05-22T03:06:51;95044.48;;;7.83;58.08
50696;BME280;36665;51.786;21.594;2023-05-22T03:15:14;95072.04;;;7.89;58.17
50696;BME280;36665;51.786;21.594;2023-05-22T03:23:38;95188.64;;;8.21;58.37
50696;BME280;36665;51.786;21.594;2023-05-22T03:32:03;95546.30;;;9.16;58.59
50696;BME280;36665;51.786;21.594;2023-05-22T03:40:28;95625.39;;;9.36;58.57
50696;BME280;36665;51.786;21.594;2023-05-22T03:48:51;95634.54;;;9.39;58.79
50696;BME280;36665;51.786;21.594;2023-05-22T03:57:15;95843.88;;;9.93;58.77
50696;BME280;36665;51.786;21.594;2023-05-22T04:05:38;96116.62;;;10.64;59.06
50696;BME280;36665;51.786;21.594;2023-05-22T04:14:04;96394.07;;;11.37;59.19
50696;BME280;36665;51.786;21.594;2023-05-22T04:22:27;96669.94;;;12.06;59.41
50696;BME280;36665;51.786;21.594;2023-05-22T04:30:52;96978.28;;;12.85;59.68
50696;BME280;36665;51.786;21.594;2023-05-22T04:39:16;97248.23;;;13.54;59.83
50696;BME280;36665;51.786;21.594;2023-05-22T04:47:39;97448.04;;;14.02;59.83
50696;BME280;36665;51.786;21.594;2023-05-22T04:56:04;97658.52;;;14.55;60.06
50696;BME280;36665;51.786;21.594;2023-05-22T05:04:28;97821.77;;;14.94;60.21
50696;BME280;36665;51.786;21.594;2023-05-22T05:12:51;97970.08;;;15.32;60.45
50696;BME280;36665;51.786;21.594;2023-05-22T05:21:14;98200.70;;;15.88;60.44
50696;BME280;36665;51.786;21.594;2023-05-22T05:29:38;98464.11;;;16.52;60.48
50696;BME280;36665;51.786;21.594;2023-05-22T05:38:10;98703.02;;;17.10;60.71
50696;BME280;36665;51.786;21.594;2023-05-22T05:46:35;98930.83;;;17.64;61.04
50696;BME280;36665;51.786;21.594;2023-05-22T05:54:59;99277.45;;;18.48;61.04
50696;BME280;36665;51.786;21.594;2023-05-22T06:03:25;99689.48;;;19.45;61.33
50696;BME280;36665;51.786;21.594;2023-05-22T06:12:14;100040.89;;;20.27;61.55
50696;BME280;36665;51.786;21.594;2023-05-22T06:20:39;100354.84;;;21.01;61.48
50696;BME280;36665;51.786;21.594;2023-05-22T06:29:03;100690.48;;;21.76;61.66
50696;BME280;36665;51.786;21.594;2023-05-22T06:37:29;100924.75;;;22.29;62.02
50696;BME280;36665;51.786;21.594;2023-05-22T06:45:58;101051.10;;;22.58;61.96
50696;BME280;36665;51.786;21.594;2023-05-22T06:54:24;101256.95;;;23.04;62.02
50696;BME280;36665;51.786;21.594;2023-05-22T07:02:51;101354.78;;;23.26;62.06
50696;BME280;36665;51.786;21.594;2023-05-22T07:11:20;101331.75;;;23.19;62.00
50696;BME280;36665;51.786;21.594;2023-05-22T07:19:44;101348.05;;;23.23;61.86
50696;BME280;36665;51.786;21.594;2023-05-22T07:28:07;101394.48;;;23.34;61.95
50696;BME280;36665;51.786;21.594;2023-05-22T07:36:37;101179.16;;;22.84;61.90
50696;BME280;36665;51.786;21.594;2023-05-22T07:45:01;101003.56;;;22.44;61.83
50696;BME280;36665;51.786;21.594;2023-05-22T07:53:24;100879.67;;;22.16;61.76
50696;BME280;36665;51.786;21.594;2023-05-22T08:01:51;100914.30;;;22.24;61.49
50696;BME280;36665;51.786;21.594;2023-05-22T08:10:16;101031.46;;;22.52;61.72
50696;BME280;36665;51.786;21.594;2023-05-22T08:18:39;101056.30;;;22.57;61.61
50696;BME280;36665;51.786;21.594;2023-05-22T08:27:03;101055.58;;;22.58;61.63
50696;BME280;36665;51.786;21.594;2023-05-22T08:35:26;101018.86;;;22.49;61.71
50696;BME280;36665;51.786;21.594;2023-05-22T08:43:49;101159.38;;;22.82;61.31
50696;BME280;36665;51.786;21.594;2023-05-22T08:52:16;101240.42;;;23.00;61.49
50696;BME280;36665;51.786;21.594;2023-05-22T09:00:41;101307.83;;;23.16;61.38
50696;BME280;36665;51.786;21.594;2023-05-22T09:09:04;101359.81;;;23.29;61.38
50696;BME280;36665;51.786;21.594;2023-05-22T09:17:28;101406.27;;;23.40;61.51
50696;BME280;36665;51.786;21.594;2023-05-22T09:25:53;101246.36;;;23.02;61.12
50696;BME280;36665;51.786;21.594;2023-05-22T09:34:17;100950.81;;;22.35;60.97
50696;BME280;36665;51.786;21.594;2023-05-22T09:42:44;100747.14;;;21.90;60.96
50696;BME280;36665;51.786;21.594;2023-05-22T09:51:09;100733.48;;;21.87;60.65
50696;BME280;36665;51.786;21.594;2023-05-22T09:59:34;100996.31;;;22.49;60.84
50696;BME280;36665;51.786;21.594;2023-05-22T10:08:17;101156.59;;;22.86;60.79
50696;BME280;36665;51.786;21.594;2023-05-22T10:16:43;101142.56;;;22.84;60.65
50696;BME280;36665;51.786;21.594;2023-05-22T10:25:08;101111.55;;;22.77;60.55
50696;BME280;36665;51.786;21.594;2023-05-22T10:33:39;101234.24;;;23.06;60.56
50696;BME280;36665;51.786;21.594;2023-05-22T10:42:04;101299.86;;;23.22;60.27
50696;BME280;36665;51.786;21.594;2023-05-22T10:50:27;101389.00;;;23.43;60.59
50696;BME280;36665;51.786;21.594;2023-05-22T10:58:59;101501.39;;;23.69;60.30
50696;BME280;36665;51.786;21.594;2023-05-22T11:07:39;101383.46;;;23.43;60.20
50696;BME280;36665;51.786;21.594;2023-05-22T11:16:05;101241.65;;;23.11;60.12
50696;BME280;36665;51.786;21.594;2023-05-22T11:24:32;101041.77;;;22.66;60.04
50696;BME280;36665;51.786;21.594;2023-05-22T11:32:59;101024.70;;;22.63;59.92
50696;BME280;36665;51.786;21.594;2023-05-22T11:41:23;100985.10;;;22.55;59.81
50696;BME280;36665;51.786;21.594;2023-05-22T11:49:46;100985.39;;;22.55;59.71
50696;BME280;36665;51.786;21.594;2023-05-22T11:58:09;101018.37;;;22.64;59.74
50696;BME280;36665;51.786;21.594;2023-05-22T12:06:32;101046.11;;;22.71;59.53
50696;BME280;36665;51.786;21.594;2023-05-22T12:14:56;100977.67;;;22.56;59.37
50696;BME280;36665;51.786;21.594;2023-05-22T12:23:24;100906.89;;;22.40;59.48
50696;BME280;36665;51.786;21.594;2023-05-22T12:31:47;100939.04;;;22.49;59.17
50696;BME280;36665;51.786;21.594;2023-05-22T12:40:10;101008.30;;;22.65;59.18
50696;BME280;36665;51.786;21.594;2023-05-22T12:48:34;101094.34;;;22.85;58.97
50696;BME280;36665;51.786;21.594;2023-05-22T12:56:59;101168.70;;;23.03;58.99
50696;BME280;36665;51.786;21.594;2023-05-22T13:05:25;101195.40;;;23.10;58.84
50696;BME280;36665;51.786;21.594;2023-05-22T13:13:49;101116.58;;;22.92;58.80
50696;BME280;36665;51.786;21.594;2023-05-22T13:22:13;101067.62;;;22.82;58.80
50696;BME280;36665;51.786;21.594;2023-05-22T13:30:37;100947.85;;;22.56;58.55
50696;BME280;36665;51.786;21.594;2023-05-22T13:39:01;100917.23;;;22.49;58.65
50696;BME280;36665;51.786;21.594;2023-05-22T13:47:24;100922.20;;;22.51;58.36
50696;BME280;36665;51.786;21.594;2023-05-22T13:55:48;100949.80;;;22.58;58.33
50696;BME280;36665;51.786;21.594;2023-05-22T14:04:11;101027.52;;;22.77;58.34
50696;BME280;36665;51.786;21.594;2023-05-22T14:12:34;101003.04;;;22.71;58.35
50696;BME280;36665;51.786;21.594;2023-05-22T14:20:57;101074.15;;;22.89;58.20
50696;BME280;36665;51.786;21.594;2023-05-22T14:29:20;101028.40;;;22.79;58.12
50696;BME280;36665;51.786;21.594;2023-05-22T14:37:43;100880.40;;;22.45;58.16
50696;BME280;36665;51.786;21.594;2023-05-22T14:46:08;100753.96;;;22.19;57.72
50696;BME280;36665;51.786;21.594;2023-05-22T14:54:32;100585.13;;;21.78;57.82
50696;BME280;36665;51.786;21.594;2023-05-22T15:02:55;100527.08;;;21.66;57.57
50696;BME280;36665;51.786;21.594;2023-05-22T15:11:18;100488.15;;;21.57;57.58
50696;BME280;36665;51.786;21.594;2023-05-22T15:19:41;100412.98;;;21.41;57.32
50696;BME280;36665;51.786;21.594;2023-05-22T15:28:07;100292.05;;;21.12;57.40
50696;BME280;36665;51.786;21.594;2023-05-22T15:36:33;100196.50;;;20.91;57.24
50696;BME280;36665;51.786;21.594;2023-05-22T15:45:00;100109.67;;;20.71;57.23
50696;BME280;36665;51.786;21.594;2023-05-22T15:53:24;100064.11;;;20.62;57.15
50696;BME280;36665;51.786;21.594;2023-05-22T16:01:47;100052.09;;;20.59;56.95
50696;BME280;36665;51.786;21.594;2023-05-22T16:10:10;100057.70;;;20.62;56.92
50696;BME280;36665;51.786;21.594;2023-05-22T16:18:34;100056.26;;;20.62;56.85
50696;BME280;36665;51.786;21.594;2023-05-22T16:26:58;99997.38;;;20.47;56.60
50696;BME280;36665;51.786;21.594;2023-05-22T16:35:21;99965.27;;;20.41;56.65
50696;BME280;36665;51.786;21.594;2023-05-22T16:43:45;99945.15;;;20.37;56.40
50696;BME280;36665;51.786;21.594;2023-05-22T16:52:08;99919.60;;;20.31;56.44
50696;BME280;36665;51.786;21.594;2023-05-22T17:00:31;99880.20;;;20.23;56.55
50696;BME280;36665;51.786;21.594;2023-05-22T17:08:54;99815.88;;;20.07;56.38
50696;BME280;36665;51.786;21.594;2023-05-22T17:17:18;99735.84;;;19.90;56.33
50696;BME280;36665;51.786;21.594;2023-05-22T17:25:41;99652.76;;;19.70;56.28
50696;BME280;36665;51.786;21.594;2023-05-22T17:34:05;99551.50;;;19.47;56.21
50696;BME280;36665;51.786;21.594;2023-05-22T17:42:28;99442.46;;;19.22;55.86
50696;BME280;36665;51.786;21.594;2023-05-22T17:50:51;99327.43;;;18.94;56.02
50696;BME280;36665;51.786;21.594;2023-05-22T17:59:15;99190.37;;;18.61;55.83
50696;BME280;36665;51.786;21.594;2023-05-22T18:07:38;99039.61;;;18.25;55.69
50696;BME280;36665;51.786;21.594;2023-05-22T18:16:01;98875.04;;;17.84;55.50
50696;BME280;36665;51.786;21.594;2023-05-22T18:24:26;98695.11;;;17.40;55.56
50696;BME280;36665;51.786;21.594;2023-05-22T18:32:49;98498.34;;;16.92;55.35
50696;BME280;36665;51.786;21.594;2023-05-22T18:41:13;98298.23;;;16.43;55.22
50696;BME280;36665;51.786;21.594;2023-05-22T18:49:36;98114.13;;;15.97;55.05
50696;BME280;36665;51.786;21.594;2023-05-22T18:57:59;97919.70;;;15.48;55.08
50696;BME280;36665;51.786;21.594;2023-05-22T19:06:22;97732.95;;;15.01;55.03
50696;BME280;36665;51.786;21.594;2023-05-22T19:14:47;97573.47;;;14.60;54.98
50696;BME280;36665;51.786;21.594;2023-05-22T19:23:12;97418.09;;;14.22;54.78
50696;BME280;36665;51.786;21.594;2023-05-22T19:31:35;97287.91;;;13.90;54.63
50696;BME280;36665;51.786;21.594;2023-05-22T19:39:58;97180.14;;;13.63;54.57
50696;BME280;36665;51.786;21.594;2023-05-22T19:48:22;97074.06;;;13.36;54.57
50696;BME280;36665;51.786;21.594;2023-05-22T19:56:46;96998.70;;;13.17;54.46
50696;BME280;36665;51.786;21.594;2023-05-22T20:05:10;96920.30;;;12.97;54.37
50696;BME280;36665;51.786;21.594;2023-05-22T20:13:35;96815.10;;;12.71;54.33
50696;BME280;36665;51.786;21.594;2023-05-22T20:21:59;96713.00;;;12.44;54.32
50696;BME280;36665;51.786;21.594;2023-05-22T20:30:22;96638.37;;;12.24;54.39
50696;BME280;36665;51.786;21.594;2023-05-22T20:38:45;96585.73;;;12.12;54.27
50696;BME280;36665;51.786;21.594;2023-05-22T20:47:08;96538.38;;;11.99;54.19
50696;BME280;36665;51.786;21.594;2023-05-22T20:55:34;96494.03;;;11.88;54.30
50696;BME280;36665;51.786;21.594;2023-05-22T21:03:57;96427.14;;;11.71;53.96
50696;BME280;36665;51.786;21.594;2023-05-22T21:12:20;96332.75;;;11.48;54.24
50696;BME280;36665;51.786;21.594;2023-05-22T21:20:43;96248.46;;;11.25;54.00
50696;BME280;36665;51.786;21.594;2023-05-22T21:29:06;96199.50;;;11.13;54.17
50696;BME280;36665;51.786;21.594;2023-05-22T21:37:28;96143.09;;;10.98;54.03
50696;BME280;36665;51.786;21.594;2023-05-22T21:45:51;96089.64;;;10.85;53.96
50696;BME280;36665;51.786;21.594;2023-05-22T21:54:14;96071.15;;;10.80;53.81
50696;BME280;36665;51.786;21.594;2023-05-22T22:02:37;96043.20;;;10.73;54.02
50696;BME280;36665;51.786;21.594;2023-05-22T22:11:00;96023.19;;;10.68;53.98
50696;BME280;36665;51.786;21.594;2023-05-22T22:19:23;95985.60;;;10.59;54.14
50696;BME280;36665;51.786;21.594;2023-05-22T22:27:47;95947.44;;;10.48;53.95
50696;BME280;36665;51.786;21.594;2023-05-22T22:36:09;95914.35;;;10.40;54.04
50696;BME280;36665;51.786;21.594;2023-05-22T22:44:35;95884.57;;;10.33;53.87
50696;BME280;36665;51.786;21.594;2023-05-22T22:53:00;95857.24;;;10.26;54.12
50696;BME280;36665;51.786;21.594;2023-05-22T23:01:24;95813.48;;;10.13;54.06
50696;BME280;36665;51.786;21.594;2023-05-22T23:09:47;95755.95;;;9.98;53.85
50696;BME280;36665;51.786;21.594;2023-05-22T23:18:10;95713.94;;;9.87;54.06
50696;BME280;36665;51.786;21.594;2023-05-22T23:26:35;95699.98;;;9.83;54.15
50696;BME280;36665;51.786;21.594;2023-05-22T23:34:58;95669.05;;;9.74;54.21
50696;BME280;36665;51.786;21.594;2023-05-22T23:43:21;95664.85;;;9.74;54.07
50696;BME280;36665;51.786;21.594;2023-05-22T23:51:43;95655.05;;;9.71;54.06
